sensor_id;sensor_type;location;lat;lon;timestamp;P1;durP1;ratioP1;P2;durP2;ratioP2
15022;SDS011;19850;49.576;10.880;2023-04-05T00:00:13;6.40;;;4.17;;
15022;SDS011;19850;49.576;10.880;2023-04-05T00:04:15;5.43;;;3.83;;
15022;SDS011;19850;49.576;10.880;2023-04-05T00:08:21;4.93;;;3.77;;
15022;SDS011;19850;49.576;10.880;2023-04-05T00:12:26;6.17;;;3.80;;
15022;SDS011;19850;49.576;10.880;2023-04-05T00:16:30;3.90;;;3.20;;
15022;SDS011;19850;49.576;10.880;2023-04-05T00:20:34;3.90;;;3.30;;
15022;SDS011;19850;49.576;10.880;2023-04-05T00:24:37;3.93;;;2.97;;
15022;SDS011;19850;49.576;10.880;2023-04-05T00:28:42;4.13;;;3.30;;
15022;SDS011;19850;49.576;10.880;2023-04-05T00:32:47;5.13;;;3.10;;
15022;SDS011;19850;49.576;10.880;2023-04-05T00:36:50;6.97;;;3.80;;
15022;SDS011;19850;49.576;10.880;2023-04-05T00:40:53;5.40;;;3.67;;
15022;SDS011;19850;49.576;10.880;2023-04-05T00:44:56;5.37;;;3.50;;
15022;SDS011;19850;49.576;10.880;2023-04-05T00:49:00;4.20;;;3.37;;
15022;SDS011;19850;49.576;10.880;2023-04-05T00:53:03;5.73;;;3.50;;
15022;SDS011;19850;49.576;10.880;2023-04-05T00:57:06;4.50;;;3.40;;
15022;SDS011;19850;49.576;10.880;2023-04-05T01:01:10;4.80;;;3.27;;
15022;SDS011;19850;49.576;10.880;2023-04-05T01:05:18;6.07;;;2.90;;
15022;SDS011;19850;49.576;10.880;2023-04-05T01:09:32;3.90;;;3.50;;
15022;SDS011;19850;49.576;10.880;2023-04-05T01:13:37;5.83;;;3.50;;
15022;SDS011;19850;49.576;10.880;2023-04-05T01:17:40;4.03;;;3.20;;
15022;SDS011;19850;49.576;10.880;2023-04-05T01:21:54;5.53;;;3.47;;
15022;SDS011;19850;49.576;10.880;2023-04-05T01:26:21;4.97;;;3.53;;
15022;SDS011;19850;49.576;10.880;2023-04-05T01:30:35;6.20;;;3.40;;
15022;SDS011;19850;49.576;10.880;2023-04-05T01:34:41;5.37;;;3.70;;
15022;SDS011;19850;49.576;10.880;2023-04-05T01:38:49;4.70;;;3.50;;
15022;SDS011;19850;49.576;10.880;2023-04-05T01:42:53;4.97;;;3.63;;
15022;SDS011;19850;49.576;10.880;2023-04-05T01:46:57;4.13;;;3.50;;
15022;SDS011;19850;49.576;10.880;2023-04-05T01:51:00;5.20;;;3.70;;
15022;SDS011;19850;49.576;10.880;2023-04-05T01:55:03;4.50;;;3.40;;
15022;SDS011;19850;49.576;10.880;2023-04-05T01:59:06;3.90;;;3.50;;
15022;SDS011;19850;49.576;10.880;2023-04-05T02:03:10;4.00;;;3.20;;
15022;SDS011;19850;49.576;10.880;2023-04-05T02:07:13;5.10;;;3.00;;
15022;SDS011;19850;49.576;10.880;2023-04-05T02:11:16;4.40;;;3.47;;
15022;SDS011;19850;49.576;10.880;2023-04-05T02:15:18;4.10;;;2.83;;
15022;SDS011;19850;49.576;10.880;2023-04-05T02:19:22;3.87;;;2.80;;
15022;SDS011;19850;49.576;10.880;2023-04-05T02:23:26;5.83;;;3.23;;
15022;SDS011;19850;49.576;10.880;2023-04-05T02:27:30;3.63;;;2.57;;
15022;SDS011;19850;49.576;10.880;2023-04-05T02:31:33;5.07;;;2.83;;
15022;SDS011;19850;49.576;10.880;2023-04-05T02:35:38;4.27;;;2.97;;
15022;SDS011;19850;49.576;10.880;2023-04-05T02:39:40;4.60;;;2.90;;
15022;SDS011;19850;49.576;10.880;2023-04-05T02:43:43;3.83;;;2.87;;
15022;SDS011;19850;49.576;10.880;2023-04-05T02:47:46;4.70;;;3.07;;
15022;SDS011;19850;49.576;10.880;2023-04-05T02:51:50;3.77;;;2.47;;
15022;SDS011;19850;49.576;10.880;2023-04-05T02:55:54;3.17;;;2.43;;
15022;SDS011;19850;49.576;10.880;2023-04-05T02:59:57;3.77;;;2.33;;
15022;SDS011;19850;49.576;10.880;2023-04-05T03:04:00;5.33;;;3.10;;
15022;SDS011;19850;49.576;10.880;2023-04-05T03:08:04;4.53;;;3.17;;
15022;SDS011;19850;49.576;10.880;2023-04-05T03:12:07;5.30;;;2.93;;
15022;SDS011;19850;49.576;10.880;2023-04-05T03:16:10;4.50;;;3.07;;
15022;SDS011;19850;49.576;10.880;2023-04-05T03:20:13;6.47;;;3.30;;
15022;SDS011;19850;49.576;10.880;2023-04-05T03:24:17;3.43;;;3.00;;
15022;SDS011;19850;49.576;10.880;2023-04-05T03:28:20;4.97;;;3.17;;
15022;SDS011;19850;49.576;10.880;2023-04-05T03:32:23;4.40;;;3.00;;
15022;SDS011;19850;49.576;10.880;2023-04-05T03:36:26;5.57;;;3.37;;
15022;SDS011;19850;49.576;10.880;2023-04-05T03:40:32;3.77;;;3.13;;
15022;SDS011;19850;49.576;10.880;2023-04-05T03:44:34;3.33;;;2.90;;
15022;SDS011;19850;49.576;10.880;2023-04-05T03:48:37;3.63;;;3.03;;
15022;SDS011;19850;49.576;10.880;2023-04-05T03:52:40;5.47;;;3.17;;
15022;SDS011;19850;49.576;10.880;2023-04-05T03:56:45;4.40;;;2.60;;
15022;SDS011;19850;49.576;10.880;2023-04-05T04:00:47;4.43;;;3.40;;
15022;SDS011;19850;49.576;10.880;2023-04-05T04:04:50;3.33;;;2.90;;
15022;SDS011;19850;49.576;10.880;2023-04-05T04:08:54;3.77;;;2.97;;
15022;SDS011;19850;49.576;10.880;2023-04-05T04:12:58;5.83;;;3.37;;
15022;SDS011;19850;49.576;10.880;2023-04-05T04:17:01;8.03;;;4.70;;
15022;SDS011;19850;49.576;10.880;2023-04-05T04:21:04;8.17;;;6.60;;
15022;SDS011;19850;49.576;10.880;2023-04-05T04:25:08;5.57;;;4.97;;
15022;SDS011;19850;49.576;10.880;2023-04-05T04:29:14;5.33;;;4.13;;
15022;SDS011;19850;49.576;10.880;2023-04-05T04:33:17;5.30;;;4.17;;
15022;SDS011;19850;49.576;10.880;2023-04-05T04:37:20;3.90;;;3.60;;
15022;SDS011;19850;49.576;10.880;2023-04-05T04:41:30;5.43;;;3.83;;
15022;SDS011;19850;49.576;10.880;2023-04-05T04:45:35;4.23;;;3.73;;
15022;SDS011;19850;49.576;10.880;2023-04-05T04:49:38;4.93;;;3.60;;
15022;SDS011;19850;49.576;10.880;2023-04-05T04:53:41;4.50;;;3.43;;
15022;SDS011;19850;49.576;10.880;2023-04-05T04:57:44;13.50;;;10.00;;
15022;SDS011;19850;49.576;10.880;2023-04-05T05:01:48;11.17;;;6.00;;
15022;SDS011;19850;49.576;10.880;2023-04-05T05:05:51;6.73;;;4.07;;
15022;SDS011;19850;49.576;10.880;2023-04-05T05:09:54;4.80;;;3.30;;
15022;SDS011;19850;49.576;10.880;2023-04-05T05:13:57;4.23;;;3.30;;
15022;SDS011;19850;49.576;10.880;2023-04-05T05:18:01;4.47;;;3.10;;
15022;SDS011;19850;49.576;10.880;2023-04-05T05:22:04;3.53;;;3.10;;
15022;SDS011;19850;49.576;10.880;2023-04-05T05:26:07;8.20;;;2.80;;
15022;SDS011;19850;49.576;10.880;2023-04-05T05:30:11;3.67;;;2.30;;
15022;SDS011;19850;49.576;10.880;2023-04-05T05:34:18;3.30;;;2.60;;
15022;SDS011;19850;49.576;10.880;2023-04-05T05:38:22;3.83;;;2.50;;
15022;SDS011;19850;49.576;10.880;2023-04-05T05:42:25;3.00;;;2.40;;
15022;SDS011;19850;49.576;10.880;2023-04-05T05:46:28;4.07;;;2.70;;
15022;SDS011;19850;49.576;10.880;2023-04-05T05:50:32;5.07;;;2.60;;
15022;SDS011;19850;49.576;10.880;2023-04-05T05:54:37;3.73;;;2.33;;
15022;SDS011;19850;49.576;10.880;2023-04-05T05:58:39;4.57;;;2.80;;
15022;SDS011;19850;49.576;10.880;2023-04-05T06:02:44;5.50;;;2.90;;
15022;SDS011;19850;49.576;10.880;2023-04-05T06:06:49;6.20;;;3.60;;
15022;SDS011;19850;49.576;10.880;2023-04-05T06:10:51;3.23;;;2.80;;
15022;SDS011;19850;49.576;10.880;2023-04-05T06:14:54;4.13;;;3.17;;
15022;SDS011;19850;49.576;10.880;2023-04-05T06:18:57;4.73;;;3.17;;
15022;SDS011;19850;49.576;10.880;2023-04-05T06:23:01;4.13;;;3.00;;
15022;SDS011;19850;49.576;10.880;2023-04-05T06:27:04;4.20;;;2.90;;
15022;SDS011;19850;49.576;10.880;2023-04-05T06:31:07;3.87;;;2.73;;
15022;SDS011;19850;49.576;10.880;2023-04-05T06:35:11;4.43;;;3.40;;
15022;SDS011;19850;49.576;10.880;2023-04-05T06:39:15;5.30;;;3.00;;
15022;SDS011;19850;49.576;10.880;2023-04-05T06:43:21;5.23;;;3.23;;
15022;SDS011;19850;49.576;10.880;2023-04-05T06:47:24;5.37;;;2.90;;
15022;SDS011;19850;49.576;10.880;2023-04-05T06:51:27;4.83;;;3.00;;
15022;SDS011;19850;49.576;10.880;2023-04-05T06:55:31;4.17;;;3.30;;
15022;SDS011;19850;49.576;10.880;2023-04-05T06:59:36;3.80;;;3.10;;
15022;SDS011;19850;49.576;10.880;2023-04-05T07:03:39;5.07;;;3.40;;
15022;SDS011;19850;49.576;10.880;2023-04-05T07:07:41;3.70;;;3.10;;
15022;SDS011;19850;49.576;10.880;2023-04-05T07:11:47;4.10;;;2.90;;
15022;SDS011;19850;49.576;10.880;2023-04-05T07:15:50;6.10;;;3.13;;
15022;SDS011;19850;49.576;10.880;2023-04-05T07:19:53;5.30;;;2.93;;
15022;SDS011;19850;49.576;10.880;2023-04-05T07:23:56;8.07;;;3.40;;
15022;SDS011;19850;49.576;10.880;2023-04-05T07:28:02;5.67;;;3.07;;
15022;SDS011;19850;49.576;10.880;2023-04-05T07:32:06;5.80;;;3.63;;
15022;SDS011;19850;49.576;10.880;2023-04-05T07:36:09;6.43;;;3.60;;
15022;SDS011;19850;49.576;10.880;2023-04-05T07:40:12;5.40;;;3.03;;
15022;SDS011;19850;49.576;10.880;2023-04-05T07:44:16;4.17;;;3.23;;
15022;SDS011;19850;49.576;10.880;2023-04-05T07:48:19;5.03;;;3.20;;
15022;SDS011;19850;49.576;10.880;2023-04-05T07:52:22;9.10;;;3.70;;
15022;SDS011;19850;49.576;10.880;2023-04-05T07:56:25;5.67;;;2.93;;
15022;SDS011;19850;49.576;10.880;2023-04-05T08:00:29;6.47;;;3.47;;
15022;SDS011;19850;49.576;10.880;2023-04-05T08:04:32;6.60;;;3.23;;
15022;SDS011;19850;49.576;10.880;2023-04-05T08:08:34;5.80;;;3.00;;
15022;SDS011;19850;49.576;10.880;2023-04-05T08:12:38;6.07;;;2.73;;
15022;SDS011;19850;49.576;10.880;2023-04-05T08:16:43;5.17;;;3.30;;
15022;SDS011;19850;49.576;10.880;2023-04-05T08:20:49;7.97;;;2.90;;
15022;SDS011;19850;49.576;10.880;2023-04-05T08:24:52;4.13;;;3.10;;
15022;SDS011;19850;49.576;10.880;2023-04-05T08:28:55;4.13;;;2.80;;
15022;SDS011;19850;49.576;10.880;2023-04-05T08:33:01;3.87;;;2.77;;
15022;SDS011;19850;49.576;10.880;2023-04-05T08:37:05;5.27;;;2.80;;
15022;SDS011;19850;49.576;10.880;2023-04-05T08:41:10;3.90;;;2.87;;
15022;SDS011;19850;49.576;10.880;2023-04-05T08:45:16;4.27;;;2.80;;
15022;SDS011;19850;49.576;10.880;2023-04-05T08:49:24;4.77;;;2.50;;
15022;SDS011;19850;49.576;10.880;2023-04-05T08:53:27;4.97;;;2.40;;
15022;SDS011;19850;49.576;10.880;2023-04-05T08:57:30;3.83;;;2.67;;
15022;SDS011;19850;49.576;10.880;2023-04-05T09:01:35;3.43;;;2.70;;
15022;SDS011;19850;49.576;10.880;2023-04-05T09:05:41;4.23;;;2.30;;
15022;SDS011;19850;49.576;10.880;2023-04-05T09:09:47;3.63;;;2.50;;
15022;SDS011;19850;49.576;10.880;2023-04-05T09:13:52;3.60;;;2.50;;
15022;SDS011;19850;49.576;10.880;2023-04-05T09:17:55;3.50;;;2.90;;
15022;SDS011;19850;49.576;10.880;2023-04-05T09:22:00;3.40;;;2.67;;
15022;SDS011;19850;49.576;10.880;2023-04-05T09:26:16;3.17;;;2.77;;
15022;SDS011;19850;49.576;10.880;2023-04-05T09:30:19;3.10;;;2.63;;
15022;SDS011;19850;49.576;10.880;2023-04-05T09:34:23;3.30;;;3.00;;
15022;SDS011;19850;49.576;10.880;2023-04-05T09:42:59;3.40;;;2.90;;
15022;SDS011;19850;49.576;10.880;2023-04-05T09:47:11;3.63;;;2.50;;
15022;SDS011;19850;49.576;10.880;2023-04-05T09:51:17;4.27;;;2.77;;
15022;SDS011;19850;49.576;10.880;2023-04-05T09:55:26;3.13;;;2.83;;
15022;SDS011;19850;49.576;10.880;2023-04-05T09:59:31;3.90;;;3.00;;
15022;SDS011;19850;49.576;10.880;2023-04-05T10:03:39;2.90;;;2.70;;
15022;SDS011;19850;49.576;10.880;2023-04-05T10:07:47;3.63;;;2.67;;
15022;SDS011;19850;49.576;10.880;2023-04-05T10:11:50;4.87;;;2.60;;
15022;SDS011;19850;49.576;10.880;2023-04-05T10:15:54;3.80;;;2.90;;
15022;SDS011;19850;49.576;10.880;2023-04-05T10:20:02;4.03;;;2.40;;
15022;SDS011;19850;49.576;10.880;2023-04-05T10:24:13;3.87;;;2.50;;
15022;SDS011;19850;49.576;10.880;2023-04-05T10:28:24;4.37;;;2.63;;
15022;SDS011;19850;49.576;10.880;2023-04-05T10:32:37;4.27;;;2.43;;
15022;SDS011;19850;49.576;10.880;2023-04-05T10:36:44;2.57;;;2.37;;
15022;SDS011;19850;49.576;10.880;2023-04-05T10:40:53;4.67;;;2.60;;
15022;SDS011;19850;49.576;10.880;2023-04-05T10:44:57;2.93;;;2.57;;
15022;SDS011;19850;49.576;10.880;2023-04-05T10:49:03;3.10;;;2.30;;
15022;SDS011;19850;49.576;10.880;2023-04-05T10:53:08;4.60;;;2.53;;
15022;SDS011;19850;49.576;10.880;2023-04-05T10:57:12;3.47;;;2.53;;
15022;SDS011;19850;49.576;10.880;2023-04-05T11:01:19;2.67;;;2.47;;
15022;SDS011;19850;49.576;10.880;2023-04-05T11:05:31;2.80;;;2.40;;
15022;SDS011;19850;49.576;10.880;2023-04-05T11:09:34;2.50;;;2.30;;
15022;SDS011;19850;49.576;10.880;2023-04-05T11:13:47;4.63;;;2.90;;
15022;SDS011;19850;49.576;10.880;2023-04-05T11:18:00;3.67;;;2.50;;
15022;SDS011;19850;49.576;10.880;2023-04-05T11:22:05;2.90;;;2.60;;
15022;SDS011;19850;49.576;10.880;2023-04-05T11:26:08;2.50;;;2.30;;
15022;SDS011;19850;49.576;10.880;2023-04-05T11:30:11;5.77;;;2.80;;
15022;SDS011;19850;49.576;10.880;2023-04-05T11:34:14;3.20;;;2.73;;
15022;SDS011;19850;49.576;10.880;2023-04-05T11:38:27;3.30;;;2.60;;
15022;SDS011;19850;49.576;10.880;2023-04-05T11:42:30;3.27;;;2.90;;
15022;SDS011;19850;49.576;10.880;2023-04-05T11:46:34;3.17;;;2.60;;
15022;SDS011;19850;49.576;10.880;2023-04-05T11:50:38;2.80;;;2.47;;
15022;SDS011;19850;49.576;10.880;2023-04-05T11:54:44;3.17;;;2.50;;
15022;SDS011;19850;49.576;10.880;2023-04-05T11:58:49;3.60;;;2.83;;
15022;SDS011;19850;49.576;10.880;2023-04-05T12:02:54;2.83;;;2.63;;
15022;SDS011;19850;49.576;10.880;2023-04-05T12:11:27;2.73;;;2.53;;
15022;SDS011;19850;49.576;10.880;2023-04-05T12:15:31;2.87;;;2.53;;
15022;SDS011;19850;49.576;10.880;2023-04-05T12:19:39;3.10;;;2.80;;
15022;SDS011;19850;49.576;10.880;2023-04-05T12:23:43;2.93;;;2.57;;
15022;SDS011;19850;49.576;10.880;2023-04-05T12:27:47;3.00;;;2.70;;
15022;SDS011;19850;49.576;10.880;2023-04-05T12:31:50;3.40;;;2.83;;
15022;SDS011;19850;49.576;10.880;2023-04-05T12:35:53;4.57;;;2.57;;
15022;SDS011;19850;49.576;10.880;2023-04-05T12:39:56;3.23;;;2.47;;
15022;SDS011;19850;49.576;10.880;2023-04-05T12:44:01;3.90;;;2.80;;
15022;SDS011;19850;49.576;10.880;2023-04-05T12:48:07;3.73;;;2.73;;
15022;SDS011;19850;49.576;10.880;2023-04-05T12:52:11;4.20;;;2.80;;
15022;SDS011;19850;49.576;10.880;2023-04-05T12:56:22;3.20;;;2.57;;
15022;SDS011;19850;49.576;10.880;2023-04-05T13:00:26;3.63;;;2.50;;
15022;SDS011;19850;49.576;10.880;2023-04-05T13:04:31;3.13;;;2.83;;
15022;SDS011;19850;49.576;10.880;2023-04-05T13:08:34;3.27;;;2.80;;
15022;SDS011;19850;49.576;10.880;2023-04-05T13:12:37;4.70;;;2.93;;
15022;SDS011;19850;49.576;10.880;2023-04-05T13:16:41;4.70;;;2.77;;
15022;SDS011;19850;49.576;10.880;2023-04-05T13:20:44;3.17;;;2.60;;
15022;SDS011;19850;49.576;10.880;2023-04-05T13:24:47;3.67;;;2.43;;
15022;SDS011;19850;49.576;10.880;2023-04-05T13:28:52;3.67;;;2.20;;
15022;SDS011;19850;49.576;10.880;2023-04-05T13:32:56;3.57;;;2.50;;
15022;SDS011;19850;49.576;10.880;2023-04-05T13:36:59;5.10;;;2.70;;
15022;SDS011;19850;49.576;10.880;2023-04-05T13:41:02;4.40;;;2.40;;
15022;SDS011;19850;49.576;10.880;2023-04-05T13:45:05;2.60;;;2.40;;
15022;SDS011;19850;49.576;10.880;2023-04-05T13:49:11;2.60;;;2.40;;
15022;SDS011;19850;49.576;10.880;2023-04-05T13:53:16;3.37;;;2.47;;
15022;SDS011;19850;49.576;10.880;2023-04-05T13:57:19;5.50;;;2.67;;
15022;SDS011;19850;49.576;10.880;2023-04-05T14:01:22;4.53;;;2.40;;
15022;SDS011;19850;49.576;10.880;2023-04-05T14:05:27;4.50;;;2.50;;
15022;SDS011;19850;49.576;10.880;2023-04-05T14:09:30;6.80;;;2.70;;
15022;SDS011;19850;49.576;10.880;2023-04-05T14:13:33;2.60;;;2.40;;
15022;SDS011;19850;49.576;10.880;2023-04-05T14:17:40;2.97;;;2.40;;
15022;SDS011;19850;49.576;10.880;2023-04-05T14:21:47;9.57;;;2.88;;
15022;SDS011;19850;49.576;10.880;2023-04-05T14:25:50;5.23;;;3.30;;
15022;SDS011;19850;49.576;10.880;2023-04-05T14:29:56;3.00;;;2.50;;
15022;SDS011;19850;49.576;10.880;2023-04-05T14:33:58;2.50;;;2.30;;
15022;SDS011;19850;49.576;10.880;2023-04-05T14:38:03;3.30;;;2.63;;
15022;SDS011;19850;49.576;10.880;2023-04-05T14:42:05;3.23;;;2.30;;
15022;SDS011;19850;49.576;10.880;2023-04-05T14:46:10;3.27;;;2.50;;
15022;SDS011;19850;49.576;10.880;2023-04-05T14:50:13;3.40;;;2.80;;
15022;SDS011;19850;49.576;10.880;2023-04-05T14:54:17;3.40;;;2.67;;
15022;SDS011;19850;49.576;10.880;2023-04-05T14:58:20;2.97;;;2.67;;
15022;SDS011;19850;49.576;10.880;2023-04-05T15:02:23;2.60;;;2.40;;
15022;SDS011;19850;49.576;10.880;2023-04-05T15:06:27;2.60;;;2.40;;
15022;SDS011;19850;49.576;10.880;2023-04-05T15:10:31;5.77;;;2.90;;
15022;SDS011;19850;49.576;10.880;2023-04-05T15:14:34;3.53;;;2.50;;
15022;SDS011;19850;49.576;10.880;2023-04-05T15:18:37;2.87;;;2.50;;
15022;SDS011;19850;49.576;10.880;2023-04-05T15:22:40;2.97;;;2.60;;
15022;SDS011;19850;49.576;10.880;2023-04-05T15:26:47;3.17;;;2.40;;
15022;SDS011;19850;49.576;10.880;2023-04-05T15:30:52;3.13;;;2.50;;
15022;SDS011;19850;49.576;10.880;2023-04-05T15:34:55;2.87;;;2.57;;
15022;SDS011;19850;49.576;10.880;2023-04-05T15:38:58;4.23;;;2.40;;
15022;SDS011;19850;49.576;10.880;2023-04-05T15:43:02;3.50;;;2.40;;
15022;SDS011;19850;49.576;10.880;2023-04-05T15:47:05;3.47;;;2.60;;
15022;SDS011;19850;49.576;10.880;2023-04-05T15:51:11;3.27;;;2.20;;
15022;SDS011;19850;49.576;10.880;2023-04-05T15:55:14;3.17;;;2.53;;
15022;SDS011;19850;49.576;10.880;2023-04-05T15:59:18;3.97;;;3.00;;
15022;SDS011;19850;49.576;10.880;2023-04-05T16:03:21;3.60;;;2.73;;
15022;SDS011;19850;49.576;10.880;2023-04-05T16:07:24;5.13;;;3.20;;
15022;SDS011;19850;49.576;10.880;2023-04-05T16:11:27;5.53;;;2.80;;
15022;SDS011;19850;49.576;10.880;2023-04-05T16:15:31;3.33;;;2.70;;
15022;SDS011;19850;49.576;10.880;2023-04-05T16:19:34;3.40;;;2.40;;
15022;SDS011;19850;49.576;10.880;2023-04-05T16:23:37;5.67;;;2.90;;
15022;SDS011;19850;49.576;10.880;2023-04-05T16:27:40;3.57;;;3.00;;
15022;SDS011;19850;49.576;10.880;2023-04-05T16:31:46;3.13;;;2.83;;
15022;SDS011;19850;49.576;10.880;2023-04-05T16:35:48;3.23;;;2.93;;
15022;SDS011;19850;49.576;10.880;2023-04-05T16:39:51;4.87;;;2.90;;
15022;SDS011;19850;49.576;10.880;2023-04-05T16:43:55;2.73;;;2.50;;
15022;SDS011;19850;49.576;10.880;2023-04-05T16:47:59;6.10;;;2.60;;
15022;SDS011;19850;49.576;10.880;2023-04-05T16:52:02;3.50;;;3.20;;
15022;SDS011;19850;49.576;10.880;2023-04-05T16:56:05;3.80;;;3.40;;
15022;SDS011;19850;49.576;10.880;2023-04-05T17:00:09;6.07;;;3.57;;
15022;SDS011;19850;49.576;10.880;2023-04-05T17:04:14;3.30;;;2.33;;
15022;SDS011;19850;49.576;10.880;2023-04-05T17:08:16;3.07;;;2.73;;
15022;SDS011;19850;49.576;10.880;2023-04-05T17:12:19;3.60;;;3.30;;
15022;SDS011;19850;49.576;10.880;2023-04-05T17:16:25;4.03;;;2.87;;
15022;SDS011;19850;49.576;10.880;2023-04-05T17:20:29;3.83;;;2.50;;
15022;SDS011;19850;49.576;10.880;2023-04-05T17:24:32;3.27;;;2.60;;
15022;SDS011;19850;49.576;10.880;2023-04-05T17:28:36;2.70;;;2.50;;
15022;SDS011;19850;49.576;10.880;2023-04-05T17:32:39;2.57;;;2.37;;
15022;SDS011;19850;49.576;10.880;2023-04-05T17:36:43;4.43;;;2.80;;
15022;SDS011;19850;49.576;10.880;2023-04-05T17:40:46;3.47;;;2.47;;
15022;SDS011;19850;49.576;10.880;2023-04-05T17:44:49;4.53;;;4.13;;
15022;SDS011;19850;49.576;10.880;2023-04-05T17:48:56;11.43;;;5.23;;
15022;SDS011;19850;49.576;10.880;2023-04-05T17:53:00;11.07;;;7.73;;
15022;SDS011;19850;49.576;10.880;2023-04-05T17:57:03;11.40;;;10.30;;
15022;SDS011;19850;49.576;10.880;2023-04-05T18:01:10;5.38;;;4.68;;
15022;SDS011;19850;49.576;10.880;2023-04-05T18:05:14;8.07;;;7.27;;
15022;SDS011;19850;49.576;10.880;2023-04-05T18:09:19;3.23;;;2.90;;
15022;SDS011;19850;49.576;10.880;2023-04-05T18:13:22;5.47;;;2.33;;
15022;SDS011;19850;49.576;10.880;2023-04-05T18:17:30;3.72;;;2.90;;
15022;SDS011;19850;49.576;10.880;2023-04-05T18:21:37;6.57;;;3.73;;
15022;SDS011;19850;49.576;10.880;2023-04-05T18:25:43;9.40;;;6.37;;
15022;SDS011;19850;49.576;10.880;2023-04-05T18:29:46;9.93;;;7.37;;
15022;SDS011;19850;49.576;10.880;2023-04-05T18:33:50;7.83;;;4.20;;
15022;SDS011;19850;49.576;10.880;2023-04-05T18:37:52;5.20;;;3.80;;
15022;SDS011;19850;49.576;10.880;2023-04-05T18:41:57;4.73;;;2.70;;
15022;SDS011;19850;49.576;10.880;2023-04-05T18:46:00;10.07;;;7.93;;
15022;SDS011;19850;49.576;10.880;2023-04-05T18:50:05;8.73;;;6.77;;
15022;SDS011;19850;49.576;10.880;2023-04-05T18:54:10;6.90;;;6.20;;
15022;SDS011;19850;49.576;10.880;2023-04-05T18:58:15;5.23;;;3.40;;
15022;SDS011;19850;49.576;10.880;2023-04-05T19:02:19;5.47;;;3.40;;
15022;SDS011;19850;49.576;10.880;2023-04-05T19:06:22;5.20;;;3.30;;
15022;SDS011;19850;49.576;10.880;2023-04-05T19:10:25;5.37;;;3.87;;
15022;SDS011;19850;49.576;10.880;2023-04-05T19:14:29;4.37;;;3.80;;
15022;SDS011;19850;49.576;10.880;2023-04-05T19:18:32;3.50;;;3.20;;
15022;SDS011;19850;49.576;10.880;2023-04-05T19:22:35;4.80;;;3.30;;
15022;SDS011;19850;49.576;10.880;2023-04-05T19:26:38;7.40;;;4.60;;
15022;SDS011;19850;49.576;10.880;2023-04-05T19:30:44;4.90;;;4.40;;
15022;SDS011;19850;49.576;10.880;2023-04-05T19:34:47;5.03;;;4.20;;
15022;SDS011;19850;49.576;10.880;2023-04-05T19:38:50;4.93;;;3.73;;
15022;SDS011;19850;49.576;10.880;2023-04-05T19:42:53;17.53;;;13.50;;
15022;SDS011;19850;49.576;10.880;2023-04-05T19:46:58;14.40;;;10.87;;
15022;SDS011;19850;49.576;10.880;2023-04-05T19:51:02;8.80;;;7.47;;
15022;SDS011;19850;49.576;10.880;2023-04-05T19:55:07;15.70;;;11.30;;
15022;SDS011;19850;49.576;10.880;2023-04-05T19:59:28;9.43;;;7.17;;
15022;SDS011;19850;49.576;10.880;2023-04-05T20:03:33;12.97;;;8.20;;
15022;SDS011;19850;49.576;10.880;2023-04-05T20:07:37;22.93;;;15.77;;
15022;SDS011;19850;49.576;10.880;2023-04-05T20:11:41;23.87;;;15.57;;
15022;SDS011;19850;49.576;10.880;2023-04-05T20:15:45;22.53;;;13.97;;
15022;SDS011;19850;49.576;10.880;2023-04-05T20:19:55;12.03;;;7.93;;
15022;SDS011;19850;49.576;10.880;2023-04-05T20:24:01;7.70;;;5.93;;
15022;SDS011;19850;49.576;10.880;2023-04-05T20:28:04;8.17;;;5.63;;
15022;SDS011;19850;49.576;10.880;2023-04-05T20:32:09;13.40;;;9.03;;
15022;SDS011;19850;49.576;10.880;2023-04-05T20:36:14;12.10;;;8.57;;
15022;SDS011;19850;49.576;10.880;2023-04-05T20:40:18;7.77;;;6.30;;
15022;SDS011;19850;49.576;10.880;2023-04-05T20:44:21;5.73;;;4.63;;
15022;SDS011;19850;49.576;10.880;2023-04-05T20:48:24;6.67;;;5.23;;
15022;SDS011;19850;49.576;10.880;2023-04-05T20:52:28;6.60;;;5.23;;
15022;SDS011;19850;49.576;10.880;2023-04-05T20:56:31;5.53;;;4.40;;
15022;SDS011;19850;49.576;10.880;2023-04-05T21:00:34;8.50;;;6.37;;
15022;SDS011;19850;49.576;10.880;2023-04-05T21:04:39;5.17;;;4.20;;
15022;SDS011;19850;49.576;10.880;2023-04-05T21:08:44;5.17;;;4.53;;
15022;SDS011;19850;49.576;10.880;2023-04-05T21:12:46;5.87;;;4.80;;
15022;SDS011;19850;49.576;10.880;2023-04-05T21:16:49;4.27;;;3.87;;
15022;SDS011;19850;49.576;10.880;2023-04-05T21:20:52;5.50;;;3.53;;
15022;SDS011;19850;49.576;10.880;2023-04-05T21:24:57;5.67;;;3.50;;
15022;SDS011;19850;49.576;10.880;2023-04-05T21:29:00;4.07;;;3.57;;
15022;SDS011;19850;49.576;10.880;2023-04-05T21:33:02;5.00;;;3.57;;
15022;SDS011;19850;49.576;10.880;2023-04-05T21:37:05;6.67;;;5.93;;
15022;SDS011;19850;49.576;10.880;2023-04-05T21:41:10;5.37;;;4.70;;
15022;SDS011;19850;49.576;10.880;2023-04-05T21:45:13;6.50;;;4.40;;
15022;SDS011;19850;49.576;10.880;2023-04-05T21:49:15;6.23;;;5.63;;
15022;SDS011;19850;49.576;10.880;2023-04-05T21:53:18;5.33;;;4.83;;
15022;SDS011;19850;49.576;10.880;2023-04-05T21:57:22;6.60;;;4.70;;
15022;SDS011;19850;49.576;10.880;2023-04-05T22:01:28;6.67;;;5.17;;
15022;SDS011;19850;49.576;10.880;2023-04-05T22:05:31;6.87;;;4.80;;
15022;SDS011;19850;49.576;10.880;2023-04-05T22:09:38;6.50;;;5.40;;
15022;SDS011;19850;49.576;10.880;2023-04-05T22:13:43;5.83;;;4.17;;
15022;SDS011;19850;49.576;10.880;2023-04-05T22:17:46;6.27;;;4.10;;
15022;SDS011;19850;49.576;10.880;2023-04-05T22:21:49;4.60;;;3.60;;
15022;SDS011;19850;49.576;10.880;2023-04-05T22:25:55;6.00;;;3.73;;
15022;SDS011;19850;49.576;10.880;2023-04-05T22:29:59;5.70;;;4.17;;
15022;SDS011;19850;49.576;10.880;2023-04-05T22:34:03;5.10;;;4.07;;
15022;SDS011;19850;49.576;10.880;2023-04-05T22:38:06;5.27;;;4.53;;
15022;SDS011;19850;49.576;10.880;2023-04-05T22:42:09;6.20;;;4.60;;
15022;SDS011;19850;49.576;10.880;2023-04-05T22:46:14;6.30;;;5.10;;
15022;SDS011;19850;49.576;10.880;2023-04-05T22:50:17;6.27;;;5.23;;
15022;SDS011;19850;49.576;10.880;2023-04-05T22:54:20;6.97;;;5.00;;
15022;SDS011;19850;49.576;10.880;2023-04-05T22:58:25;5.90;;;5.03;;
15022;SDS011;19850;49.576;10.880;2023-04-05T23:02:31;6.83;;;4.60;;
15022;SDS011;19850;49.576;10.880;2023-04-05T23:06:34;6.23;;;4.87;;
15022;SDS011;19850;49.576;10.880;2023-04-05T23:10:37;7.07;;;5.27;;
15022;SDS011;19850;49.576;10.880;2023-04-05T23:14:39;7.17;;;5.30;;
15022;SDS011;19850;49.576;10.880;2023-04-05T23:18:44;6.07;;;4.63;;
15022;SDS011;19850;49.576;10.880;2023-04-05T23:22:49;6.57;;;3.67;;
15022;SDS011;19850;49.576;10.880;2023-04-05T23:26:52;4.40;;;3.40;;
15022;SDS011;19850;49.576;10.880;2023-04-05T23:30:56;5.00;;;3.90;;
15022;SDS011;19850;49.576;10.880;2023-04-05T23:35:01;5.40;;;3.70;;
15022;SDS011;19850;49.576;10.880;2023-04-05T23:39:04;3.80;;;3.40;;
15022;SDS011;19850;49.576;10.880;2023-04-05T23:43:07;5.17;;;3.70;;
15022;SDS011;19850;49.576;10.880;2023-04-05T23:47:10;4.30;;;3.63;;
15022;SDS011;19850;49.576;10.880;2023-04-05T23:51:14;5.43;;;3.67;;
15022;SDS011;19850;49.576;10.880;2023-04-05T23:55:17;5.57;;;3.90;;
15022;SDS011;19850;49.576;10.880;2023-04-05T23:59:21;6.07;;;4.47;;
